sensor_id;sensor_type;location;lat;lon;timestamp;pressure;altitude;pressure_sealevel;temperature;humidity
4410;BME280;2218;51.408;7.208;2023-07-09T00:00:45;99993.06;;;24.95;45.08
4410;BME280;2218;51.408;7.208;2023-07-09T00:03:12;99987.75;;;24.95;45.02
4410;BME280;2218;51.408;7.208;2023-07-09T00:05:39;99988.59;;;24.95;45.20
4410;BME280;2218;51.408;7.208;2023-07-09T00:08:24;99981.59;;;24.94;44.97
4410;BME280;2218;51.408;7.208;2023-07-09T00:10:53;99988.59;;;24.95;44.99
4410;BME280;2218;51.408;7.208;2023-07-09T00:13:22;99980.63;;;24.95;44.97
4410;BME280;2218;51.408;7.208;2023-07-09T00:15:50;99976.28;;;24.94;45.14
4410;BME280;2218;51.408;7.208;2023-07-09T00:18:17;99984.25;;;24.94;44.96
4410;BME280;2218;51.408;7.208;2023-07-09T00:20:44;99977.97;;;24.95;45.05
4410;BME280;2218;51.408;7.208;2023-07-09T00:23:13;99973.63;;;24.94;45.00
4410;BME280;2218;51.408;7.208;2023-07-09T00:25:45;99972.66;;;24.95;44.99
4410;BME280;2218;51.408;7.208;2023-07-09T00:28:14;99981.59;;;24.94;45.05
4410;BME280;2218;51.408;7.208;2023-07-09T00:30:44;99977.13;;;24.95;45.05
4410;BME280;2218;51.408;7.208;2023-07-09T00:33:12;99984.13;;;24.96;45.17
4410;BME280;2218;51.408;7.208;2023-07-09T00:35:41;99979.78;;;24.95;45.08
4410;BME280;2218;51.408;7.208;2023-07-09T00:38:14;99979.78;;;24.95;45.07
4410;BME280;2218;51.408;7.208;2023-07-09T00:40:48;99986.91;;;24.94;44.89
4410;BME280;2218;51.408;7.208;2023-07-09T00:43:16;99976.28;;;24.94;44.92
4410;BME280;2218;51.408;7.208;2023-07-09T00:46:16;99974.63;;;24.93;44.96
4410;BME280;2218;51.408;7.208;2023-07-09T00:48:45;99977.97;;;24.95;44.85
4410;BME280;2218;51.408;7.208;2023-07-09T00:51:18;99977.13;;;24.95;45.07
4410;BME280;2218;51.408;7.208;2023-07-09T00:53:49;99979.78;;;24.95;45.04
4410;BME280;2218;51.408;7.208;2023-07-09T00:56:26;99971.81;;;24.95;44.59
4410;BME280;2218;51.408;7.208;2023-07-09T00:58:58;99963.97;;;24.93;45.05
4410;BME280;2218;51.408;7.208;2023-07-09T01:01:33;99970.97;;;24.94;45.00
4410;BME280;2218;51.408;7.208;2023-07-09T01:04:02;99971.81;;;24.95;45.19
4410;BME280;2218;51.408;7.208;2023-07-09T01:06:36;99971.81;;;24.95;45.25
4410;BME280;2218;51.408;7.208;2023-07-09T01:09:06;99970.97;;;24.94;45.28
4410;BME280;2218;51.408;7.208;2023-07-09T01:11:34;99978.94;;;24.94;45.11
4410;BME280;2218;51.408;7.208;2023-07-09T01:14:07;99973.63;;;24.94;45.36
4410;BME280;2218;51.408;7.208;2023-07-09T01:16:43;99972.78;;;24.94;45.08
4410;BME280;2218;51.408;7.208;2023-07-09T01:19:11;99976.28;;;24.94;44.81
4410;BME280;2218;51.408;7.208;2023-07-09T01:21:43;99976.28;;;24.94;45.29
4410;BME280;2218;51.408;7.208;2023-07-09T01:24:14;99976.28;;;24.94;45.28
4410;BME280;2218;51.408;7.208;2023-07-09T01:26:45;99976.28;;;24.94;45.19
4410;BME280;2218;51.408;7.208;2023-07-09T01:29:12;99970.97;;;24.94;45.34
4410;BME280;2218;51.408;7.208;2023-07-09T01:31:39;99978.94;;;24.94;45.33
4410;BME280;2218;51.408;7.208;2023-07-09T01:34:06;99976.28;;;24.94;45.45
4410;BME280;2218;51.408;7.208;2023-07-09T01:36:33;99981.59;;;24.94;45.35
4410;BME280;2218;51.408;7.208;2023-07-09T01:39:03;99976.28;;;24.94;45.35
4410;BME280;2218;51.408;7.208;2023-07-09T01:41:31;99973.63;;;24.94;45.18
4410;BME280;2218;51.408;7.208;2023-07-09T01:44:00;99975.44;;;24.94;45.43
4410;BME280;2218;51.408;7.208;2023-07-09T01:46:26;99971.94;;;24.93;45.31
4410;BME280;2218;51.408;7.208;2023-07-09T01:48:54;99975.44;;;24.94;45.43
4410;BME280;2218;51.408;7.208;2023-07-09T01:51:21;99976.28;;;24.94;45.49
4410;BME280;2218;51.408;7.208;2023-07-09T01:53:50;99974.63;;;24.93;45.45
4410;BME280;2218;51.408;7.208;2023-07-09T01:56:20;99981.59;;;24.94;45.34
4410;BME280;2218;51.408;7.208;2023-07-09T01:58:49;99975.44;;;24.94;45.41
4410;BME280;2218;51.408;7.208;2023-07-09T02:01:16;99973.63;;;24.94;45.64
4410;BME280;2218;51.408;7.208;2023-07-09T02:03:45;99973.78;;;24.93;45.51
4410;BME280;2218;51.408;7.208;2023-07-09T02:06:12;99974.63;;;24.93;45.90
4410;BME280;2218;51.408;7.208;2023-07-09T02:08:39;99971.94;;;24.93;45.72
4410;BME280;2218;51.408;7.208;2023-07-09T02:11:06;99972.94;;;24.92;45.57
4410;BME280;2218;51.408;7.208;2023-07-09T02:13:34;99980.78;;;24.94;45.41
4410;BME280;2218;51.408;7.208;2023-07-09T02:16:01;99985.25;;;24.93;46.05
4410;BME280;2218;51.408;7.208;2023-07-09T02:18:29;99981.59;;;24.94;45.66
4410;BME280;2218;51.408;7.208;2023-07-09T02:20:56;99983.56;;;24.92;45.53
4410;BME280;2218;51.408;7.208;2023-07-09T02:23:27;99985.25;;;24.93;45.65
4410;BME280;2218;51.408;7.208;2023-07-09T02:25:55;99986.22;;;24.92;45.67
4410;BME280;2218;51.408;7.208;2023-07-09T02:28:21;99982.72;;;24.92;45.69
4410;BME280;2218;51.408;7.208;2023-07-09T02:30:50;99979.09;;;24.93;45.75
4410;BME280;2218;51.408;7.208;2023-07-09T02:33:18;99979.94;;;24.93;45.75
4410;BME280;2218;51.408;7.208;2023-07-09T02:35:46;99983.56;;;24.92;45.86
4410;BME280;2218;51.408;7.208;2023-07-09T02:38:13;99980.91;;;24.92;45.82
4410;BME280;2218;51.408;7.208;2023-07-09T02:40:40;99985.25;;;24.93;46.09
4410;BME280;2218;51.408;7.208;2023-07-09T02:43:07;99983.56;;;24.92;46.05
4410;BME280;2218;51.408;7.208;2023-07-09T02:45:35;99990.56;;;24.93;45.91
4410;BME280;2218;51.408;7.208;2023-07-09T02:48:03;99988.88;;;24.92;46.02
4410;BME280;2218;51.408;7.208;2023-07-09T02:50:36;99985.25;;;24.93;46.05
4410;BME280;2218;51.408;7.208;2023-07-09T02:53:03;99994.22;;;24.92;46.25
4410;BME280;2218;51.408;7.208;2023-07-09T02:55:30;99996.03;;;24.92;46.14
4410;BME280;2218;51.408;7.208;2023-07-09T02:57:57;99991.66;;;24.91;46.33
4410;BME280;2218;51.408;7.208;2023-07-09T03:00:24;99991.53;;;24.92;46.34
4410;BME280;2218;51.408;7.208;2023-07-09T03:02:51;99997.69;;;24.93;46.20
4410;BME280;2218;51.408;7.208;2023-07-09T03:05:19;99995.19;;;24.91;46.31
4410;BME280;2218;51.408;7.208;2023-07-09T03:07:46;99990.72;;;24.92;46.26
4410;BME280;2218;51.408;7.208;2023-07-09T03:10:13;99997.84;;;24.91;46.42
4410;BME280;2218;51.408;7.208;2023-07-09T03:12:40;100006.66;;;24.92;46.33
4410;BME280;2218;51.408;7.208;2023-07-09T03:15:07;100002.28;;;24.91;46.48
4410;BME280;2218;51.408;7.208;2023-07-09T03:17:34;100004.13;;;24.90;46.50
4410;BME280;2218;51.408;7.208;2023-07-09T03:20:01;100001.47;;;24.90;46.45
4410;BME280;2218;51.408;7.208;2023-07-09T03:22:29;100011.97;;;24.92;46.92
4410;BME280;2218;51.408;7.208;2023-07-09T03:24:56;100008.47;;;24.91;46.38
4410;BME280;2218;51.408;7.208;2023-07-09T03:27:23;100008.47;;;24.91;46.57
4410;BME280;2218;51.408;7.208;2023-07-09T03:29:50;100019.97;;;24.92;46.29
4410;BME280;2218;51.408;7.208;2023-07-09T03:32:17;100019.13;;;24.91;46.56
4410;BME280;2218;51.408;7.208;2023-07-09T03:34:44;100014.63;;;24.92;46.58
4410;BME280;2218;51.408;7.208;2023-07-09T03:37:12;100019.13;;;24.91;46.64
4410;BME280;2218;51.408;7.208;2023-07-09T03:39:42;100026.13;;;24.92;46.71
4410;BME280;2218;51.408;7.208;2023-07-09T03:42:09;100023.56;;;24.91;46.44
4410;BME280;2218;51.408;7.208;2023-07-09T03:44:36;100022.63;;;24.92;46.43
4410;BME280;2218;51.408;7.208;2023-07-09T03:47:04;100024.44;;;24.91;46.55
4410;BME280;2218;51.408;7.208;2023-07-09T03:49:32;100023.56;;;24.91;46.59
4410;BME280;2218;51.408;7.208;2023-07-09T03:51:59;100027.09;;;24.91;46.19
4410;BME280;2218;51.408;7.208;2023-07-09T03:54:26;100021.78;;;24.91;46.59
4410;BME280;2218;51.408;7.208;2023-07-09T03:56:54;100024.44;;;24.91;46.63
4410;BME280;2218;51.408;7.208;2023-07-09T03:59:21;100025.28;;;24.92;46.61
4410;BME280;2218;51.408;7.208;2023-07-09T04:01:48;100026.22;;;24.91;46.57
4410;BME280;2218;51.408;7.208;2023-07-09T04:04:15;100026.13;;;24.92;46.64
4410;BME280;2218;51.408;7.208;2023-07-09T04:06:45;100033.25;;;24.92;46.69
4410;BME280;2218;51.408;7.208;2023-07-09T04:09:12;100027.78;;;24.93;46.61
4410;BME280;2218;51.408;7.208;2023-07-09T04:11:39;100026.13;;;24.92;46.69
4410;BME280;2218;51.408;7.208;2023-07-09T04:14:08;100031.44;;;24.92;46.71
4410;BME280;2218;51.408;7.208;2023-07-09T04:16:35;100032.28;;;24.93;46.77
4410;BME280;2218;51.408;7.208;2023-07-09T04:19:02;100033.09;;;24.93;46.68
4410;BME280;2218;51.408;7.208;2023-07-09T04:21:29;100033.09;;;24.93;46.75
4410;BME280;2218;51.408;7.208;2023-07-09T04:23:55;100033.09;;;24.93;46.71
4410;BME280;2218;51.408;7.208;2023-07-09T04:26:22;100040.09;;;24.94;46.68
4410;BME280;2218;51.408;7.208;2023-07-09T04:28:49;100028.63;;;24.94;47.04
4410;BME280;2218;51.408;7.208;2023-07-09T04:31:17;100026.81;;;24.94;46.68
4410;BME280;2218;51.408;7.208;2023-07-09T04:33:44;100035.63;;;24.95;46.89
4410;BME280;2218;51.408;7.208;2023-07-09T04:36:12;100030.31;;;24.95;46.55
4410;BME280;2218;51.408;7.208;2023-07-09T04:38:39;100025.81;;;24.95;46.99
4410;BME280;2218;51.408;7.208;2023-07-09T04:41:05;100030.31;;;24.95;46.85
4410;BME280;2218;51.408;7.208;2023-07-09T04:43:32;100030.19;;;24.96;46.93
4410;BME280;2218;51.408;7.208;2023-07-09T04:45:59;100037.28;;;24.96;46.67
4410;BME280;2218;51.408;7.208;2023-07-09T04:48:28;100027.53;;;24.96;46.90
4410;BME280;2218;51.408;7.208;2023-07-09T04:50:55;100027.53;;;24.96;46.75
4410;BME280;2218;51.408;7.208;2023-07-09T04:53:21;100024.88;;;24.96;46.80
4410;BME280;2218;51.408;7.208;2023-07-09T04:55:49;100032.84;;;24.96;46.73
4410;BME280;2218;51.408;7.208;2023-07-09T04:58:17;100035.38;;;24.98;46.66
4410;BME280;2218;51.408;7.208;2023-07-09T05:00:44;100030.88;;;24.98;46.97
4410;BME280;2218;51.408;7.208;2023-07-09T05:03:11;100038.72;;;25.00;46.52
4410;BME280;2218;51.408;7.208;2023-07-09T05:05:43;100038.44;;;25.03;46.70
4410;BME280;2218;51.408;7.208;2023-07-09T05:08:11;100037.31;;;25.06;46.79
4410;BME280;2218;51.408;7.208;2023-07-09T05:10:41;100040.75;;;25.08;46.73
4410;BME280;2218;51.408;7.208;2023-07-09T05:13:10;100040.59;;;25.09;46.67
4410;BME280;2218;51.408;7.208;2023-07-09T05:15:41;100040.44;;;25.11;46.78
4410;BME280;2218;51.408;7.208;2023-07-09T05:18:08;100039.34;;;25.13;47.04
4410;BME280;2218;51.408;7.208;2023-07-09T05:20:35;100041.88;;;25.15;46.53
4410;BME280;2218;51.408;7.208;2023-07-09T05:23:04;100039.94;;;25.17;46.26
4410;BME280;2218;51.408;7.208;2023-07-09T05:25:31;100043.28;;;25.19;46.52
4410;BME280;2218;51.408;7.208;2023-07-09T05:27:58;100045.78;;;25.20;46.59
4410;BME280;2218;51.408;7.208;2023-07-09T05:30:26;100043.03;;;25.22;46.78
4410;BME280;2218;51.408;7.208;2023-07-09T05:32:53;100048.19;;;25.23;46.64
4410;BME280;2218;51.408;7.208;2023-07-09T05:35:23;100046.09;;;25.27;46.62
4410;BME280;2218;51.408;7.208;2023-07-09T05:37:50;100051.44;;;25.27;46.71
4410;BME280;2218;51.408;7.208;2023-07-09T05:40:19;100049.47;;;25.29;46.48
4410;BME280;2218;51.408;7.208;2023-07-09T05:42:46;100051.13;;;25.30;46.51
4410;BME280;2218;51.408;7.208;2023-07-09T05:45:14;100043.88;;;25.32;46.85
4410;BME280;2218;51.408;7.208;2023-07-09T05:47:42;100053.38;;;25.35;46.50
4410;BME280;2218;51.408;7.208;2023-07-09T05:50:09;100051.44;;;25.37;46.69
4410;BME280;2218;51.408;7.208;2023-07-09T05:52:36;100050.47;;;25.38;46.39
4410;BME280;2218;51.408;7.208;2023-07-09T05:55:04;100053.28;;;25.36;46.24
4410;BME280;2218;51.408;7.208;2023-07-09T05:57:33;100052.13;;;25.39;46.74
4410;BME280;2218;51.408;7.208;2023-07-09T06:00:00;100050.31;;;25.39;46.56
4410;BME280;2218;51.408;7.208;2023-07-09T06:02:27;100048.38;;;25.41;46.43
4410;BME280;2218;51.408;7.208;2023-07-09T06:04:54;100061.53;;;25.43;46.39
4410;BME280;2218;51.408;7.208;2023-07-09T06:07:24;100057.06;;;25.43;46.66
4410;BME280;2218;51.408;7.208;2023-07-09T06:09:50;100054.25;;;25.45;46.66
4410;BME280;2218;51.408;7.208;2023-07-09T06:12:18;100065.72;;;25.45;46.55
4410;BME280;2218;51.408;7.208;2023-07-09T06:14:46;100062.09;;;25.46;46.56
4410;BME280;2218;51.408;7.208;2023-07-09T06:17:13;100058.47;;;25.47;46.62
4410;BME280;2218;51.408;7.208;2023-07-09T06:19:40;100060.13;;;25.48;46.69
4410;BME280;2218;51.408;7.208;2023-07-09T06:22:07;100058.31;;;25.49;46.84
4410;BME280;2218;51.408;7.208;2023-07-09T06:24:34;100059.16;;;25.49;46.48
4410;BME280;2218;51.408;7.208;2023-07-09T06:27:01;100059.03;;;25.51;46.71
4410;BME280;2218;51.408;7.208;2023-07-09T06:29:28;100055.38;;;25.52;46.73
4410;BME280;2218;51.408;7.208;2023-07-09T06:31:56;100068.53;;;25.53;46.41
4410;BME280;2218;51.408;7.208;2023-07-09T06:34:23;100066.88;;;25.52;46.66
4410;BME280;2218;51.408;7.208;2023-07-09T06:36:50;100055.25;;;25.53;46.58
4410;BME280;2218;51.408;7.208;2023-07-09T06:39:18;100054.25;;;25.55;46.27
4410;BME280;2218;51.408;7.208;2023-07-09T06:41:46;100054.13;;;25.56;46.51
4410;BME280;2218;51.408;7.208;2023-07-09T06:44:32;100074.56;;;25.56;46.64
4410;BME280;2218;51.408;7.208;2023-07-09T06:47:00;100055.94;;;25.56;46.73
4410;BME280;2218;51.408;7.208;2023-07-09T06:49:28;100057.63;;;25.57;46.92
4410;BME280;2218;51.408;7.208;2023-07-09T06:51:55;100059.31;;;25.58;46.73
4410;BME280;2218;51.408;7.208;2023-07-09T06:54:22;100055.66;;;25.59;46.66
4410;BME280;2218;51.408;7.208;2023-07-09T06:56:48;100060.16;;;25.58;46.96
4410;BME280;2218;51.408;7.208;2023-07-09T06:59:15;100061.81;;;25.59;46.77
4410;BME280;2218;51.408;7.208;2023-07-09T07:01:42;100060.97;;;25.59;46.95
4410;BME280;2218;51.408;7.208;2023-07-09T07:04:10;100064.34;;;25.61;46.80
4410;BME280;2218;51.408;7.208;2023-07-09T07:06:37;100067.00;;;25.61;46.71
4410;BME280;2218;51.408;7.208;2023-07-09T07:09:04;100061.69;;;25.61;47.13
4410;BME280;2218;51.408;7.208;2023-07-09T07:11:31;100065.22;;;25.61;47.11
4410;BME280;2218;51.408;7.208;2023-07-09T07:13:58;100068.72;;;25.62;46.97
4410;BME280;2218;51.408;7.208;2023-07-09T07:16:25;100066.03;;;25.62;47.08
4410;BME280;2218;51.408;7.208;2023-07-09T07:18:52;100064.22;;;25.62;46.92
4410;BME280;2218;51.408;7.208;2023-07-09T07:21:20;100065.06;;;25.63;47.08
4410;BME280;2218;51.408;7.208;2023-07-09T07:23:47;100064.06;;;25.64;47.31
4410;BME280;2218;51.408;7.208;2023-07-09T07:26:14;100063.09;;;25.65;47.42
4410;BME280;2218;51.408;7.208;2023-07-09T07:28:41;100062.25;;;25.64;47.26
4410;BME280;2218;51.408;7.208;2023-07-09T07:31:09;100063.81;;;25.67;47.42
4410;BME280;2218;51.408;7.208;2023-07-09T07:33:39;100060.31;;;25.66;47.33
4410;BME280;2218;51.408;7.208;2023-07-09T07:36:08;100065.47;;;25.68;47.16
4410;BME280;2218;51.408;7.208;2023-07-09T07:38:37;100058.47;;;25.67;47.62
4410;BME280;2218;51.408;7.208;2023-07-09T07:41:04;100063.66;;;25.68;47.23
4410;BME280;2218;51.408;7.208;2023-07-09T07:43:31;100060.16;;;25.68;47.19
4410;BME280;2218;51.408;7.208;2023-07-09T07:45:58;100060.16;;;25.68;47.53
4410;BME280;2218;51.408;7.208;2023-07-09T07:48:24;100068.00;;;25.69;47.55
4410;BME280;2218;51.408;7.208;2023-07-09T07:50:58;100064.50;;;25.69;47.44
4410;BME280;2218;51.408;7.208;2023-07-09T07:53:25;100061.84;;;25.69;47.14
4410;BME280;2218;51.408;7.208;2023-07-09T07:55:56;100068.84;;;25.70;47.21
4410;BME280;2218;51.408;7.208;2023-07-09T07:58:23;100064.34;;;25.70;47.97
4410;BME280;2218;51.408;7.208;2023-07-09T08:00:55;100062.56;;;25.71;47.51
4410;BME280;2218;51.408;7.208;2023-07-09T08:03:23;100063.50;;;25.70;47.10
4410;BME280;2218;51.408;7.208;2023-07-09T08:05:50;100070.53;;;25.71;47.88
4410;BME280;2218;51.408;7.208;2023-07-09T08:08:17;100064.22;;;25.72;47.27
4410;BME280;2218;51.408;7.208;2023-07-09T08:10:44;100055.41;;;25.71;47.60
4410;BME280;2218;51.408;7.208;2023-07-09T08:13:13;100058.91;;;25.72;47.56
4410;BME280;2218;51.408;7.208;2023-07-09T08:15:40;100053.56;;;25.72;48.19
4410;BME280;2218;51.408;7.208;2023-07-09T08:18:08;100058.91;;;25.72;48.07
4410;BME280;2218;51.408;7.208;2023-07-09T08:20:35;100050.91;;;25.72;48.23
4410;BME280;2218;51.408;7.208;2023-07-09T08:23:02;100048.94;;;25.74;47.57
4410;BME280;2218;51.408;7.208;2023-07-09T08:25:29;100048.09;;;25.73;48.24
4410;BME280;2218;51.408;7.208;2023-07-09T08:27:56;100058.75;;;25.73;48.11
4410;BME280;2218;51.408;7.208;2023-07-09T08:30:24;100054.28;;;25.74;47.66
4410;BME280;2218;51.408;7.208;2023-07-09T08:32:51;100043.63;;;25.74;48.25
4410;BME280;2218;51.408;7.208;2023-07-09T08:35:18;100051.59;;;25.74;47.76
4410;BME280;2218;51.408;7.208;2023-07-09T08:37:45;100050.66;;;25.75;48.16
4410;BME280;2218;51.408;7.208;2023-07-09T08:40:15;100055.97;;;25.75;47.90
4410;BME280;2218;51.408;7.208;2023-07-09T08:42:45;100046.16;;;25.75;47.79
4410;BME280;2218;51.408;7.208;2023-07-09T08:45:27;100042.66;;;25.75;48.12
4410;BME280;2218;51.408;7.208;2023-07-09T08:48:03;100043.50;;;25.75;48.27
4410;BME280;2218;51.408;7.208;2023-07-09T08:50:37;100039.88;;;25.76;47.71
4410;BME280;2218;51.408;7.208;2023-07-09T08:53:13;100040.72;;;25.77;47.94
4410;BME280;2218;51.408;7.208;2023-07-09T08:55:44;100029.22;;;25.76;48.39
4410;BME280;2218;51.408;7.208;2023-07-09T08:58:21;100034.41;;;25.78;48.37
4410;BME280;2218;51.408;7.208;2023-07-09T09:00:54;100033.56;;;25.77;48.06
4410;BME280;2218;51.408;7.208;2023-07-09T09:03:31;100025.59;;;25.77;48.54
4410;BME280;2218;51.408;7.208;2023-07-09T09:06:11;100026.41;;;25.78;47.86
4410;BME280;2218;51.408;7.208;2023-07-09T09:08:44;100032.44;;;25.80;48.64
4410;BME280;2218;51.408;7.208;2023-07-09T09:11:20;100029.09;;;25.78;48.44
4410;BME280;2218;51.408;7.208;2023-07-09T09:13:55;100028.09;;;25.79;48.06
4410;BME280;2218;51.408;7.208;2023-07-09T09:16:31;100023.75;;;25.78;48.38
4410;BME280;2218;51.408;7.208;2023-07-09T09:19:01;100028.09;;;25.79;48.18
4410;BME280;2218;51.408;7.208;2023-07-09T09:21:34;100020.09;;;25.79;48.51
4410;BME280;2218;51.408;7.208;2023-07-09T09:24:14;100020.94;;;25.80;48.63
4410;BME280;2218;51.408;7.208;2023-07-09T09:26:44;100011.13;;;25.80;48.84
4410;BME280;2218;51.408;7.208;2023-07-09T09:29:15;100015.63;;;25.80;48.83
4410;BME280;2218;51.408;7.208;2023-07-09T09:31:52;100020.81;;;25.81;48.27
4410;BME280;2218;51.408;7.208;2023-07-09T09:34:23;100017.28;;;25.81;48.50
4410;BME280;2218;51.408;7.208;2023-07-09T09:36:51;100030.50;;;25.82;48.60
4410;BME280;2218;51.408;7.208;2023-07-09T09:39:18;100017.19;;;25.82;48.53
4410;BME280;2218;51.408;7.208;2023-07-09T09:41:46;100018.84;;;25.83;48.50
4410;BME280;2218;51.408;7.208;2023-07-09T09:44:23;100021.50;;;25.83;49.02
4410;BME280;2218;51.408;7.208;2023-07-09T09:46:52;100020.69;;;25.83;48.58
4410;BME280;2218;51.408;7.208;2023-07-09T09:49:22;100019.69;;;25.84;48.02
4410;BME280;2218;51.408;7.208;2023-07-09T09:51:49;100025.84;;;25.84;48.35
4410;BME280;2218;51.408;7.208;2023-07-09T09:54:20;100023.19;;;25.84;48.22
4410;BME280;2218;51.408;7.208;2023-07-09T09:56:49;100021.34;;;25.85;48.06
4410;BME280;2218;51.408;7.208;2023-07-09T09:59:20;100013.38;;;25.85;48.23
4410;BME280;2218;51.408;7.208;2023-07-09T10:01:57;100019.53;;;25.85;48.03
4410;BME280;2218;51.408;7.208;2023-07-09T10:04:25;100020.38;;;25.86;48.30
4410;BME280;2218;51.408;7.208;2023-07-09T10:06:56;100019.53;;;25.85;48.29
4410;BME280;2218;51.408;7.208;2023-07-09T10:09:44;100014.22;;;25.85;48.39
4410;BME280;2218;51.408;7.208;2023-07-09T10:12:29;100015.91;;;25.86;48.28
4410;BME280;2218;51.408;7.208;2023-07-09T10:15:17;100016.88;;;25.85;48.03
4410;BME280;2218;51.408;7.208;2023-07-09T10:18:00;100013.25;;;25.86;48.36
4410;BME280;2218;51.408;7.208;2023-07-09T10:20:37;100004.41;;;25.86;48.15
4410;BME280;2218;51.408;7.208;2023-07-09T10:23:19;100011.44;;;25.87;48.39
4410;BME280;2218;51.408;7.208;2023-07-09T10:25:54;100004.28;;;25.87;48.30
4410;BME280;2218;51.408;7.208;2023-07-09T10:29:00;100002.44;;;25.88;48.18
4410;BME280;2218;51.408;7.208;2023-07-09T10:31:41;99990.13;;;25.87;48.05
4410;BME280;2218;51.408;7.208;2023-07-09T10:34:26;99990.97;;;25.87;48.66
4410;BME280;2218;51.408;7.208;2023-07-09T10:37:20;99984.81;;;25.87;48.52
4410;BME280;2218;51.408;7.208;2023-07-09T10:39:52;99985.63;;;25.87;48.77
4410;BME280;2218;51.408;7.208;2023-07-09T10:42:25;99981.16;;;25.88;48.63
4410;BME280;2218;51.408;7.208;2023-07-09T10:44:59;99978.34;;;25.89;48.83
4410;BME280;2218;51.408;7.208;2023-07-09T10:47:35;99974.00;;;25.88;48.54
4410;BME280;2218;51.408;7.208;2023-07-09T10:50:12;99970.34;;;25.89;48.14
4410;BME280;2218;51.408;7.208;2023-07-09T10:52:46;99970.34;;;25.89;48.57
4410;BME280;2218;51.408;7.208;2023-07-09T10:55:20;99972.03;;;25.90;48.40
4410;BME280;2218;51.408;7.208;2023-07-09T10:57:57;99980.00;;;25.90;48.05
4410;BME280;2218;51.408;7.208;2023-07-09T11:00:34;99980.00;;;25.90;47.99
4410;BME280;2218;51.408;7.208;2023-07-09T11:03:12;99979.88;;;25.92;48.32
4410;BME280;2218;51.408;7.208;2023-07-09T11:05:43;99975.41;;;25.92;48.35
4410;BME280;2218;51.408;7.208;2023-07-09T11:08:15;99979.72;;;25.93;48.13
4410;BME280;2218;51.408;7.208;2023-07-09T11:10:52;99978.06;;;25.92;48.62
4410;BME280;2218;51.408;7.208;2023-07-09T11:13:35;99982.56;;;25.92;48.35
4410;BME280;2218;51.408;7.208;2023-07-09T11:16:06;99986.06;;;25.92;48.37
4410;BME280;2218;51.408;7.208;2023-07-09T11:18:35;99973.56;;;25.93;48.10
4410;BME280;2218;51.408;7.208;2023-07-09T11:21:13;99970.75;;;25.94;48.60
4410;BME280;2218;51.408;7.208;2023-07-09T11:23:49;99964.59;;;25.94;48.41
4410;BME280;2218;51.408;7.208;2023-07-09T11:26:24;99966.25;;;25.95;47.78
4410;BME280;2218;51.408;7.208;2023-07-09T11:28:54;99956.44;;;25.95;48.44
4410;BME280;2218;51.408;7.208;2023-07-09T11:31:31;99952.00;;;25.96;48.54
4410;BME280;2218;51.408;7.208;2023-07-09T11:34:08;99944.13;;;25.94;48.40
4410;BME280;2218;51.408;7.208;2023-07-09T11:36:58;99939.50;;;25.96;48.35
4410;BME280;2218;51.408;7.208;2023-07-09T11:39:29;99945.69;;;25.97;47.77
4410;BME280;2218;51.408;7.208;2023-07-09T11:41:56;99937.81;;;25.95;47.86
4410;BME280;2218;51.408;7.208;2023-07-09T11:44:26;99936.84;;;25.96;47.87
4410;BME280;2218;51.408;7.208;2023-07-09T11:47:16;99927.88;;;25.97;48.46
4410;BME280;2218;51.408;7.208;2023-07-09T11:49:52;99929.53;;;25.98;47.86
4410;BME280;2218;51.408;7.208;2023-07-09T11:52:28;99937.53;;;25.98;47.82
4410;BME280;2218;51.408;7.208;2023-07-09T11:54:57;99926.88;;;25.98;48.14
4410;BME280;2218;51.408;7.208;2023-07-09T11:57:24;99931.22;;;25.99;47.83
4410;BME280;2218;51.408;7.208;2023-07-09T11:59:51;99936.53;;;25.99;47.85
4410;BME280;2218;51.408;7.208;2023-07-09T12:02:20;99922.25;;;26.00;47.83
4410;BME280;2218;51.408;7.208;2023-07-09T12:04:50;99927.56;;;26.00;47.53
4410;BME280;2218;51.408;7.208;2023-07-09T12:07:20;99919.44;;;26.02;47.43
4410;BME280;2218;51.408;7.208;2023-07-09T12:09:51;99916.91;;;26.00;47.85
4410;BME280;2218;51.408;7.208;2023-07-09T12:12:21;99915.94;;;26.01;47.62
4410;BME280;2218;51.408;7.208;2023-07-09T12:14:50;99923.94;;;26.01;47.81
4410;BME280;2218;51.408;7.208;2023-07-09T12:17:17;99922.94;;;26.02;47.52
4410;BME280;2218;51.408;7.208;2023-07-09T12:19:44;99927.28;;;26.03;47.34
4410;BME280;2218;51.408;7.208;2023-07-09T12:22:19;99921.13;;;26.03;47.50
4410;BME280;2218;51.408;7.208;2023-07-09T12:24:48;99919.28;;;26.03;47.75
4410;BME280;2218;51.408;7.208;2023-07-09T12:27:23;99923.63;;;26.04;47.89
4410;BME280;2218;51.408;7.208;2023-07-09T12:29:54;99916.63;;;26.03;47.41
4410;BME280;2218;51.408;7.208;2023-07-09T12:32:22;99912.00;;;26.06;47.55
4410;BME280;2218;51.408;7.208;2023-07-09T12:34:54;99914.66;;;26.06;47.84
4410;BME280;2218;51.408;7.208;2023-07-09T12:37:24;99925.31;;;26.06;47.62
4410;BME280;2218;51.408;7.208;2023-07-09T12:39:52;99916.34;;;26.07;47.34
4410;BME280;2218;51.408;7.208;2023-07-09T12:42:32;99912.69;;;26.08;47.43
4410;BME280;2218;51.408;7.208;2023-07-09T12:45:00;99905.69;;;26.07;47.14
4410;BME280;2218;51.408;7.208;2023-07-09T12:47:28;99906.53;;;26.07;47.14
4410;BME280;2218;51.408;7.208;2023-07-09T12:50:19;99898.53;;;26.07;47.55
4410;BME280;2218;51.408;7.208;2023-07-09T12:52:47;99893.22;;;26.07;47.41
4410;BME280;2218;51.408;7.208;2023-07-09T12:55:23;99895.03;;;26.07;47.52
4410;BME280;2218;51.408;7.208;2023-07-09T12:57:55;99887.75;;;26.09;47.33
4410;BME280;2218;51.408;7.208;2023-07-09T13:00:23;99895.72;;;26.09;47.25
4410;BME280;2218;51.408;7.208;2023-07-09T13:02:55;99891.25;;;26.09;47.04
4410;BME280;2218;51.408;7.208;2023-07-09T13:05:24;99889.41;;;26.10;47.11
4410;BME280;2218;51.408;7.208;2023-07-09T13:07:54;99892.91;;;26.10;47.25
4410;BME280;2218;51.408;7.208;2023-07-09T13:10:27;99891.94;;;26.11;46.88
4410;BME280;2218;51.408;7.208;2023-07-09T13:13:00;99891.94;;;26.11;47.60
4410;BME280;2218;51.408;7.208;2023-07-09T13:15:31;99892.78;;;26.12;47.43
4410;BME280;2218;51.408;7.208;2023-07-09T13:18:00;99891.13;;;26.11;46.92
4410;BME280;2218;51.408;7.208;2023-07-09T13:20:30;99888.28;;;26.12;47.17
4410;BME280;2218;51.408;7.208;2023-07-09T13:22:58;99881.13;;;26.13;47.58
4410;BME280;2218;51.408;7.208;2023-07-09T13:25:25;99883.81;;;26.13;47.53
4410;BME280;2218;51.408;7.208;2023-07-09T13:27:53;99877.63;;;26.12;47.29
4410;BME280;2218;51.408;7.208;2023-07-09T13:30:22;99866.81;;;26.14;46.94